sensor_id;sensor_type;location;lat;lon;timestamp;P1;durP1;ratioP1;P2;durP2;ratioP2
37777;SDS011;23615;51.506;7.678;2023-12-29T00:01:29;2.77;;;0.40;;
37777;SDS011;23615;51.506;7.678;2023-12-29T00:03:57;4.10;;;0.53;;
37777;SDS011;23615;51.506;7.678;2023-12-29T00:06:22;2.50;;;0.40;;
37777;SDS011;23615;51.506;7.678;2023-12-29T00:08:47;1.60;;;0.30;;
37777;SDS011;23615;51.506;7.678;2023-12-29T00:11:16;3.37;;;0.50;;
37777;SDS011;23615;51.506;7.678;2023-12-29T00:13:42;1.50;;;0.30;;
37777;SDS011;23615;51.506;7.678;2023-12-29T00:16:07;5.40;;;0.30;;
37777;SDS011;23615;51.506;7.678;2023-12-29T00:18:33;1.85;;;0.30;;
37777;SDS011;23615;51.506;7.678;2023-12-29T00:20:58;1.80;;;0.30;;
37777;SDS011;23615;51.506;7.678;2023-12-29T00:23:23;1.87;;;0.50;;
37777;SDS011;23615;51.506;7.678;2023-12-29T00:25:48;1.17;;;0.20;;
37777;SDS011;23615;51.506;7.678;2023-12-29T00:28:14;4.37;;;0.63;;
37777;SDS011;23615;51.506;7.678;2023-12-29T00:30:39;3.97;;;0.40;;
37777;SDS011;23615;51.506;7.678;2023-12-29T00:33:05;4.03;;;0.75;;
37777;SDS011;23615;51.506;7.678;2023-12-29T00:35:30;2.60;;;0.30;;
37777;SDS011;23615;51.506;7.678;2023-12-29T00:37:56;4.37;;;0.20;;
37777;SDS011;23615;51.506;7.678;2023-12-29T00:40:21;2.43;;;0.30;;
37777;SDS011;23615;51.506;7.678;2023-12-29T00:42:47;4.23;;;0.43;;
37777;SDS011;23615;51.506;7.678;2023-12-29T00:45:12;1.00;;;0.30;;
37777;SDS011;23615;51.506;7.678;2023-12-29T00:47:37;2.78;;;0.35;;
37777;SDS011;23615;51.506;7.678;2023-12-29T00:50:03;2.92;;;0.65;;
37777;SDS011;23615;51.506;7.678;2023-12-29T00:52:28;2.38;;;0.50;;
37777;SDS011;23615;51.506;7.678;2023-12-29T00:54:54;1.35;;;0.20;;
37777;SDS011;23615;51.506;7.678;2023-12-29T00:57:19;3.05;;;0.25;;
37777;SDS011;23615;51.506;7.678;2023-12-29T00:59:46;3.13;;;0.37;;
37777;SDS011;23615;51.506;7.678;2023-12-29T01:02:12;2.25;;;0.35;;
37777;SDS011;23615;51.506;7.678;2023-12-29T01:04:38;2.10;;;0.30;;
37777;SDS011;23615;51.506;7.678;2023-12-29T01:07:04;2.60;;;0.30;;
37777;SDS011;23615;51.506;7.678;2023-12-29T01:09:29;3.57;;;0.40;;
37777;SDS011;23615;51.506;7.678;2023-12-29T01:11:55;2.80;;;0.27;;
37777;SDS011;23615;51.506;7.678;2023-12-29T01:14:20;1.50;;;0.30;;
37777;SDS011;23615;51.506;7.678;2023-12-29T01:16:45;3.27;;;0.60;;
37777;SDS011;23615;51.506;7.678;2023-12-29T01:19:11;2.30;;;0.50;;
37777;SDS011;23615;51.506;7.678;2023-12-29T01:21:39;4.43;;;0.40;;
37777;SDS011;23615;51.506;7.678;2023-12-29T01:24:04;1.48;;;0.28;;
37777;SDS011;23615;51.506;7.678;2023-12-29T01:26:32;0.97;;;0.20;;
37777;SDS011;23615;51.506;7.678;2023-12-29T01:29:01;2.00;;;0.30;;
37777;SDS011;23615;51.506;7.678;2023-12-29T01:31:29;1.60;;;0.20;;
37777;SDS011;23615;51.506;7.678;2023-12-29T01:33:55;3.03;;;0.40;;
37777;SDS011;23615;51.506;7.678;2023-12-29T01:36:20;1.97;;;0.30;;
37777;SDS011;23615;51.506;7.678;2023-12-29T01:38:46;2.17;;;0.20;;
37777;SDS011;23615;51.506;7.678;2023-12-29T01:41:11;1.70;;;0.20;;
37777;SDS011;23615;51.506;7.678;2023-12-29T01:44:02;1.70;;;0.20;;
37777;SDS011;23615;51.506;7.678;2023-12-29T01:46:28;1.83;;;0.22;;
37777;SDS011;23615;51.506;7.678;2023-12-29T01:48:55;5.77;;;0.40;;
37777;SDS011;23615;51.506;7.678;2023-12-29T01:51:23;3.30;;;0.30;;
37777;SDS011;23615;51.506;7.678;2023-12-29T01:53:51;2.30;;;0.30;;
37777;SDS011;23615;51.506;7.678;2023-12-29T01:56:17;3.37;;;0.20;;
37777;SDS011;23615;51.506;7.678;2023-12-29T01:58:43;2.13;;;0.20;;
37777;SDS011;23615;51.506;7.678;2023-12-29T02:01:10;2.65;;;0.40;;
37777;SDS011;23615;51.506;7.678;2023-12-29T02:03:37;2.10;;;0.30;;
37777;SDS011;23615;51.506;7.678;2023-12-29T02:06:03;3.23;;;0.37;;
37777;SDS011;23615;51.506;7.678;2023-12-29T02:08:29;3.55;;;0.50;;
37777;SDS011;23615;51.506;7.678;2023-12-29T02:10:55;1.63;;;0.40;;
37777;SDS011;23615;51.506;7.678;2023-12-29T02:13:20;2.70;;;0.27;;
37777;SDS011;23615;51.506;7.678;2023-12-29T02:15:47;1.97;;;0.30;;
37777;SDS011;23615;51.506;7.678;2023-12-29T02:18:17;1.60;;;0.60;;
37777;SDS011;23615;51.506;7.678;2023-12-29T02:20:45;4.28;;;0.30;;
37777;SDS011;23615;51.506;7.678;2023-12-29T02:23:11;3.10;;;0.30;;
37777;SDS011;23615;51.506;7.678;2023-12-29T02:25:36;5.77;;;0.30;;
37777;SDS011;23615;51.506;7.678;2023-12-29T02:30:41;1.40;;;0.40;;
37777;SDS011;23615;51.506;7.678;2023-12-29T02:33:14;1.65;;;0.40;;
37777;SDS011;23615;51.506;7.678;2023-12-29T02:35:44;2.88;;;0.60;;
37777;SDS011;23615;51.506;7.678;2023-12-29T02:38:11;3.80;;;0.50;;
37777;SDS011;23615;51.506;7.678;2023-12-29T02:40:37;1.65;;;0.35;;
37777;SDS011;23615;51.506;7.678;2023-12-29T02:43:03;2.57;;;0.40;;
37777;SDS011;23615;51.506;7.678;2023-12-29T02:45:29;2.40;;;0.67;;
37777;SDS011;23615;51.506;7.678;2023-12-29T02:47:54;1.47;;;0.30;;
37777;SDS011;23615;51.506;7.678;2023-12-29T02:50:19;3.43;;;0.40;;
37777;SDS011;23615;51.506;7.678;2023-12-29T02:52:45;3.33;;;0.50;;
37777;SDS011;23615;51.506;7.678;2023-12-29T02:55:10;5.43;;;0.50;;
37777;SDS011;23615;51.506;7.678;2023-12-29T02:57:35;3.60;;;0.40;;
37777;SDS011;23615;51.506;7.678;2023-12-29T03:00:01;3.80;;;0.60;;
37777;SDS011;23615;51.506;7.678;2023-12-29T03:02:26;3.20;;;0.70;;
37777;SDS011;23615;51.506;7.678;2023-12-29T03:04:51;5.00;;;0.47;;
37777;SDS011;23615;51.506;7.678;2023-12-29T03:07:17;3.87;;;0.47;;
37777;SDS011;23615;51.506;7.678;2023-12-29T03:09:42;4.40;;;0.50;;
37777;SDS011;23615;51.506;7.678;2023-12-29T03:12:08;3.03;;;0.30;;
37777;SDS011;23615;51.506;7.678;2023-12-29T03:14:33;3.15;;;0.40;;
37777;SDS011;23615;51.506;7.678;2023-12-29T03:16:58;2.90;;;0.60;;
37777;SDS011;23615;51.506;7.678;2023-12-29T03:19:24;2.50;;;0.50;;
37777;SDS011;23615;51.506;7.678;2023-12-29T03:21:49;2.17;;;0.55;;
37777;SDS011;23615;51.506;7.678;2023-12-29T03:24:15;5.78;;;0.52;;
37777;SDS011;23615;51.506;7.678;2023-12-29T03:26:41;3.57;;;1.30;;
37777;SDS011;23615;51.506;7.678;2023-12-29T03:29:06;7.27;;;0.50;;
37777;SDS011;23615;51.506;7.678;2023-12-29T03:31:31;3.40;;;0.70;;
37777;SDS011;23615;51.506;7.678;2023-12-29T03:33:57;3.73;;;0.60;;
37777;SDS011;23615;51.506;7.678;2023-12-29T03:36:22;2.63;;;0.50;;
37777;SDS011;23615;51.506;7.678;2023-12-29T03:38:47;5.33;;;0.67;;
37777;SDS011;23615;51.506;7.678;2023-12-29T03:41:13;1.52;;;0.35;;
37777;SDS011;23615;51.506;7.678;2023-12-29T03:43:38;2.42;;;0.60;;
37777;SDS011;23615;51.506;7.678;2023-12-29T03:46:14;3.85;;;0.50;;
37777;SDS011;23615;51.506;7.678;2023-12-29T03:48:46;4.45;;;0.70;;
37777;SDS011;23615;51.506;7.678;2023-12-29T03:51:12;3.83;;;0.40;;
37777;SDS011;23615;51.506;7.678;2023-12-29T03:53:38;2.10;;;0.50;;
37777;SDS011;23615;51.506;7.678;2023-12-29T03:56:09;4.47;;;0.50;;
37777;SDS011;23615;51.506;7.678;2023-12-29T03:58:38;2.53;;;0.47;;
37777;SDS011;23615;51.506;7.678;2023-12-29T04:01:04;3.50;;;0.70;;
37777;SDS011;23615;51.506;7.678;2023-12-29T04:03:34;2.42;;;0.50;;
37777;SDS011;23615;51.506;7.678;2023-12-29T04:05:59;3.83;;;0.57;;
37777;SDS011;23615;51.506;7.678;2023-12-29T04:08:24;3.87;;;1.10;;
37777;SDS011;23615;51.506;7.678;2023-12-29T04:10:49;3.50;;;0.60;;
37777;SDS011;23615;51.506;7.678;2023-12-29T04:13:15;2.80;;;0.47;;
37777;SDS011;23615;51.506;7.678;2023-12-29T04:15:40;4.65;;;0.80;;
37777;SDS011;23615;51.506;7.678;2023-12-29T04:18:05;4.85;;;0.85;;
37777;SDS011;23615;51.506;7.678;2023-12-29T04:20:31;3.17;;;0.50;;
37777;SDS011;23615;51.506;7.678;2023-12-29T04:22:56;3.20;;;0.55;;
37777;SDS011;23615;51.506;7.678;2023-12-29T04:25:22;3.40;;;0.43;;
37777;SDS011;23615;51.506;7.678;2023-12-29T04:27:47;4.73;;;0.67;;
37777;SDS011;23615;51.506;7.678;2023-12-29T04:30:12;3.40;;;0.80;;
37777;SDS011;23615;51.506;7.678;2023-12-29T04:32:38;5.77;;;0.87;;
37777;SDS011;23615;51.506;7.678;2023-12-29T04:35:03;3.27;;;0.70;;
37777;SDS011;23615;51.506;7.678;2023-12-29T04:37:29;4.47;;;0.68;;
37777;SDS011;23615;51.506;7.678;2023-12-29T04:39:54;4.18;;;0.63;;
37777;SDS011;23615;51.506;7.678;2023-12-29T04:42:20;3.67;;;0.50;;
37777;SDS011;23615;51.506;7.678;2023-12-29T04:44:45;5.47;;;0.60;;
37777;SDS011;23615;51.506;7.678;2023-12-29T04:47:10;4.93;;;0.80;;
37777;SDS011;23615;51.506;7.678;2023-12-29T04:49:36;2.60;;;0.70;;
37777;SDS011;23615;51.506;7.678;2023-12-29T04:52:01;6.80;;;0.60;;
37777;SDS011;23615;51.506;7.678;2023-12-29T04:54:27;3.57;;;0.50;;
37777;SDS011;23615;51.506;7.678;2023-12-29T04:56:52;5.37;;;0.60;;
37777;SDS011;23615;51.506;7.678;2023-12-29T04:59:18;4.70;;;0.50;;
37777;SDS011;23615;51.506;7.678;2023-12-29T05:01:43;2.70;;;0.67;;
37777;SDS011;23615;51.506;7.678;2023-12-29T05:04:08;5.80;;;0.70;;
37777;SDS011;23615;51.506;7.678;2023-12-29T05:06:34;4.10;;;0.60;;
37777;SDS011;23615;51.506;7.678;2023-12-29T05:08:59;2.90;;;0.30;;
37777;SDS011;23615;51.506;7.678;2023-12-29T05:11:24;4.35;;;0.60;;
37777;SDS011;23615;51.506;7.678;2023-12-29T05:13:50;3.65;;;0.40;;
37777;SDS011;23615;51.506;7.678;2023-12-29T05:16:15;4.03;;;0.70;;
37777;SDS011;23615;51.506;7.678;2023-12-29T05:18:41;3.63;;;0.40;;
37777;SDS011;23615;51.506;7.678;2023-12-29T05:21:13;4.17;;;0.30;;
37777;SDS011;23615;51.506;7.678;2023-12-29T05:23:39;5.25;;;0.82;;
37777;SDS011;23615;51.506;7.678;2023-12-29T05:26:04;4.87;;;0.47;;
37777;SDS011;23615;51.506;7.678;2023-12-29T05:28:29;3.90;;;0.67;;
37777;SDS011;23615;51.506;7.678;2023-12-29T05:30:55;6.20;;;1.10;;
37777;SDS011;23615;51.506;7.678;2023-12-29T05:33:20;4.47;;;0.60;;
37777;SDS011;23615;51.506;7.678;2023-12-29T05:35:46;4.57;;;0.60;;
37777;SDS011;23615;51.506;7.678;2023-12-29T05:38:11;6.47;;;0.60;;
37777;SDS011;23615;51.506;7.678;2023-12-29T05:40:37;3.57;;;0.47;;
37777;SDS011;23615;51.506;7.678;2023-12-29T05:43:02;3.07;;;0.50;;
37777;SDS011;23615;51.506;7.678;2023-12-29T05:45:27;4.40;;;0.77;;
37777;SDS011;23615;51.506;7.678;2023-12-29T05:47:53;3.40;;;0.50;;
37777;SDS011;23615;51.506;7.678;2023-12-29T05:50:18;4.10;;;0.47;;
37777;SDS011;23615;51.506;7.678;2023-12-29T05:52:43;3.60;;;0.40;;
37777;SDS011;23615;51.506;7.678;2023-12-29T05:55:09;3.40;;;0.90;;
37777;SDS011;23615;51.506;7.678;2023-12-29T05:57:34;4.05;;;0.63;;
37777;SDS011;23615;51.506;7.678;2023-12-29T05:59:59;4.83;;;0.60;;
37777;SDS011;23615;51.506;7.678;2023-12-29T06:02:25;3.53;;;0.50;;
37777;SDS011;23615;51.506;7.678;2023-12-29T06:04:50;2.60;;;0.33;;
37777;SDS011;23615;51.506;7.678;2023-12-29T06:07:15;4.77;;;0.50;;
37777;SDS011;23615;51.506;7.678;2023-12-29T06:09:41;2.50;;;0.40;;
37777;SDS011;23615;51.506;7.678;2023-12-29T06:12:06;3.93;;;0.60;;
37777;SDS011;23615;51.506;7.678;2023-12-29T06:14:31;2.13;;;0.50;;
37777;SDS011;23615;51.506;7.678;2023-12-29T06:16:57;4.85;;;0.70;;
37777;SDS011;23615;51.506;7.678;2023-12-29T06:19:22;3.30;;;0.50;;
37777;SDS011;23615;51.506;7.678;2023-12-29T06:21:47;3.43;;;0.50;;
37777;SDS011;23615;51.506;7.678;2023-12-29T06:24:13;3.73;;;0.90;;
37777;SDS011;23615;51.506;7.678;2023-12-29T06:26:38;4.23;;;0.60;;
37777;SDS011;23615;51.506;7.678;2023-12-29T06:29:08;4.57;;;0.60;;
37777;SDS011;23615;51.506;7.678;2023-12-29T06:31:34;2.87;;;0.40;;
37777;SDS011;23615;51.506;7.678;2023-12-29T06:34:00;4.23;;;0.67;;
37777;SDS011;23615;51.506;7.678;2023-12-29T06:36:25;3.83;;;0.40;;
37777;SDS011;23615;51.506;7.678;2023-12-29T06:38:50;5.53;;;0.50;;
37777;SDS011;23615;51.506;7.678;2023-12-29T06:41:17;3.83;;;0.40;;
37777;SDS011;23615;51.506;7.678;2023-12-29T06:43:43;3.22;;;0.40;;
37777;SDS011;23615;51.506;7.678;2023-12-29T06:46:08;3.35;;;0.38;;
37777;SDS011;23615;51.506;7.678;2023-12-29T06:48:34;3.50;;;0.40;;
37777;SDS011;23615;51.506;7.678;2023-12-29T06:50:59;4.40;;;0.70;;
37777;SDS011;23615;51.506;7.678;2023-12-29T06:53:24;2.40;;;0.70;;
37777;SDS011;23615;51.506;7.678;2023-12-29T06:55:50;3.63;;;0.70;;
37777;SDS011;23615;51.506;7.678;2023-12-29T06:58:16;3.17;;;0.30;;
37777;SDS011;23615;51.506;7.678;2023-12-29T07:00:41;3.53;;;0.40;;
37777;SDS011;23615;51.506;7.678;2023-12-29T07:03:06;4.23;;;0.57;;
37777;SDS011;23615;51.506;7.678;2023-12-29T07:05:32;2.53;;;0.57;;
37777;SDS011;23615;51.506;7.678;2023-12-29T07:07:57;4.47;;;0.60;;
37777;SDS011;23615;51.506;7.678;2023-12-29T07:10:22;4.40;;;0.60;;
37777;SDS011;23615;51.506;7.678;2023-12-29T07:12:47;5.50;;;0.63;;
37777;SDS011;23615;51.506;7.678;2023-12-29T07:15:13;5.13;;;0.60;;
37777;SDS011;23615;51.506;7.678;2023-12-29T07:17:39;4.53;;;0.40;;
37777;SDS011;23615;51.506;7.678;2023-12-29T07:20:04;2.00;;;0.30;;
37777;SDS011;23615;51.506;7.678;2023-12-29T07:22:31;4.10;;;0.60;;
37777;SDS011;23615;51.506;7.678;2023-12-29T07:24:57;6.20;;;0.90;;
37777;SDS011;23615;51.506;7.678;2023-12-29T07:27:23;3.73;;;0.40;;
37777;SDS011;23615;51.506;7.678;2023-12-29T07:29:48;4.63;;;0.70;;
37777;SDS011;23615;51.506;7.678;2023-12-29T07:32:13;3.50;;;0.50;;
37777;SDS011;23615;51.506;7.678;2023-12-29T07:34:39;5.43;;;0.70;;
37777;SDS011;23615;51.506;7.678;2023-12-29T07:37:04;4.28;;;0.52;;
37777;SDS011;23615;51.506;7.678;2023-12-29T07:39:29;7.03;;;1.20;;
37777;SDS011;23615;51.506;7.678;2023-12-29T07:41:55;3.97;;;0.60;;
37777;SDS011;23615;51.506;7.678;2023-12-29T07:44:20;2.40;;;0.30;;
37777;SDS011;23615;51.506;7.678;2023-12-29T07:46:45;3.93;;;0.43;;
37777;SDS011;23615;51.506;7.678;2023-12-29T07:49:11;3.93;;;0.50;;
37777;SDS011;23615;51.506;7.678;2023-12-29T07:51:40;3.53;;;0.40;;
37777;SDS011;23615;51.506;7.678;2023-12-29T07:54:06;3.17;;;0.60;;
37777;SDS011;23615;51.506;7.678;2023-12-29T07:56:32;5.75;;;0.60;;
37777;SDS011;23615;51.506;7.678;2023-12-29T07:58:57;4.53;;;0.57;;
37777;SDS011;23615;51.506;7.678;2023-12-29T08:01:22;2.60;;;0.50;;
37777;SDS011;23615;51.506;7.678;2023-12-29T08:03:48;3.83;;;0.50;;
37777;SDS011;23615;51.506;7.678;2023-12-29T08:06:13;3.27;;;0.57;;
37777;SDS011;23615;51.506;7.678;2023-12-29T08:08:38;4.53;;;0.50;;
37777;SDS011;23615;51.506;7.678;2023-12-29T08:11:04;2.40;;;0.60;;
37777;SDS011;23615;51.506;7.678;2023-12-29T08:13:29;4.03;;;0.50;;
37777;SDS011;23615;51.506;7.678;2023-12-29T08:15:55;3.00;;;0.60;;
37777;SDS011;23615;51.506;7.678;2023-12-29T08:18:21;3.67;;;0.67;;
37777;SDS011;23615;51.506;7.678;2023-12-29T08:20:46;5.33;;;0.63;;
37777;SDS011;23615;51.506;7.678;2023-12-29T08:23:11;2.80;;;0.40;;
37777;SDS011;23615;51.506;7.678;2023-12-29T08:25:36;3.83;;;0.40;;
37777;SDS011;23615;51.506;7.678;2023-12-29T08:28:02;2.25;;;0.40;;
37777;SDS011;23615;51.506;7.678;2023-12-29T08:30:27;4.00;;;0.70;;
37777;SDS011;23615;51.506;7.678;2023-12-29T08:32:53;2.40;;;0.60;;
37777;SDS011;23615;51.506;7.678;2023-12-29T08:35:18;4.33;;;0.70;;
37777;SDS011;23615;51.506;7.678;2023-12-29T08:37:43;2.67;;;0.90;;
37777;SDS011;23615;51.506;7.678;2023-12-29T08:40:09;1.50;;;0.37;;
37777;SDS011;23615;51.506;7.678;2023-12-29T08:42:34;4.60;;;0.70;;
37777;SDS011;23615;51.506;7.678;2023-12-29T08:44:59;3.03;;;0.50;;
37777;SDS011;23615;51.506;7.678;2023-12-29T08:47:25;3.20;;;0.50;;
37777;SDS011;23615;51.506;7.678;2023-12-29T08:49:51;2.80;;;0.50;;
37777;SDS011;23615;51.506;7.678;2023-12-29T08:52:16;1.80;;;0.30;;
37777;SDS011;23615;51.506;7.678;2023-12-29T08:54:41;2.87;;;0.80;;
37777;SDS011;23615;51.506;7.678;2023-12-29T08:57:07;2.10;;;0.37;;
37777;SDS011;23615;51.506;7.678;2023-12-29T08:59:32;4.70;;;0.87;;
37777;SDS011;23615;51.506;7.678;2023-12-29T09:01:58;2.70;;;0.40;;
37777;SDS011;23615;51.506;7.678;2023-12-29T09:04:23;2.00;;;0.20;;
37777;SDS011;23615;51.506;7.678;2023-12-29T09:06:49;2.37;;;0.30;;
37777;SDS011;23615;51.506;7.678;2023-12-29T09:09:14;2.37;;;0.50;;
37777;SDS011;23615;51.506;7.678;2023-12-29T09:11:41;2.47;;;0.30;;
37777;SDS011;23615;51.506;7.678;2023-12-29T09:14:07;3.17;;;0.20;;
37777;SDS011;23615;51.506;7.678;2023-12-29T09:16:32;2.27;;;0.37;;
37777;SDS011;23615;51.506;7.678;2023-12-29T09:18:59;1.98;;;0.20;;
37777;SDS011;23615;51.506;7.678;2023-12-29T09:21:24;2.80;;;0.60;;
37777;SDS011;23615;51.506;7.678;2023-12-29T09:23:49;1.70;;;0.30;;
37777;SDS011;23615;51.506;7.678;2023-12-29T09:26:15;1.65;;;0.25;;
37777;SDS011;23615;51.506;7.678;2023-12-29T09:28:41;1.67;;;0.20;;
37777;SDS011;23615;51.506;7.678;2023-12-29T09:31:07;1.92;;;0.20;;
37777;SDS011;23615;51.506;7.678;2023-12-29T09:33:32;2.00;;;0.30;;
37777;SDS011;23615;51.506;7.678;2023-12-29T09:35:58;2.23;;;0.20;;
37777;SDS011;23615;51.506;7.678;2023-12-29T09:38:23;0.90;;;0.20;;
37777;SDS011;23615;51.506;7.678;2023-12-29T09:40:48;0.20;;;0.10;;
37777;SDS011;23615;51.506;7.678;2023-12-29T09:43:15;0.40;;;0.10;;
37777;SDS011;23615;51.506;7.678;2023-12-29T09:45:41;0.50;;;0.20;;
37777;SDS011;23615;51.506;7.678;2023-12-29T09:48:09;3.17;;;0.13;;
37777;SDS011;23615;51.506;7.678;2023-12-29T09:50:38;1.27;;;0.20;;
37777;SDS011;23615;51.506;7.678;2023-12-29T09:53:04;3.13;;;0.20;;
37777;SDS011;23615;51.506;7.678;2023-12-29T09:55:31;1.00;;;0.40;;
37777;SDS011;23615;51.506;7.678;2023-12-29T09:57:58;0.88;;;0.10;;
37777;SDS011;23615;51.506;7.678;2023-12-29T10:00:25;1.03;;;0.23;;
37777;SDS011;23615;51.506;7.678;2023-12-29T10:02:51;0.80;;;0.20;;
37777;SDS011;23615;51.506;7.678;2023-12-29T10:05:18;0.55;;;0.13;;
37777;SDS011;23615;51.506;7.678;2023-12-29T10:07:43;1.80;;;0.30;;
37777;SDS011;23615;51.506;7.678;2023-12-29T10:10:14;1.20;;;0.10;;
37777;SDS011;23615;51.506;7.678;2023-12-29T10:12:43;1.27;;;0.10;;
37777;SDS011;23615;51.506;7.678;2023-12-29T10:15:15;0.08;;;0.00;;
37777;SDS011;23615;51.506;7.678;2023-12-29T10:20:23;0.55;;;0.03;;
37777;SDS011;23615;51.506;7.678;2023-12-29T10:23:03;1.55;;;0.00;;
37777;SDS011;23615;51.506;7.678;2023-12-29T10:25:33;0.55;;;0.10;;
37777;SDS011;23615;51.506;7.678;2023-12-29T10:27:59;0.00;;;0.00;;
37777;SDS011;23615;51.506;7.678;2023-12-29T10:30:25;1.10;;;0.10;;
37777;SDS011;23615;51.506;7.678;2023-12-29T10:32:51;1.40;;;0.10;;
37777;SDS011;23615;51.506;7.678;2023-12-29T10:35:17;0.17;;;0.00;;
37777;SDS011;23615;51.506;7.678;2023-12-29T10:37:43;0.20;;;0.00;;
37777;SDS011;23615;51.506;7.678;2023-12-29T10:40:08;0.23;;;0.10;;
37777;SDS011;23615;51.506;7.678;2023-12-29T10:42:34;0.70;;;0.20;;
37777;SDS011;23615;51.506;7.678;2023-12-29T10:45:06;0.20;;;0.10;;
37777;SDS011;23615;51.506;7.678;2023-12-29T10:47:32;0.35;;;0.00;;
37777;SDS011;23615;51.506;7.678;2023-12-29T10:49:59;0.10;;;0.00;;
37777;SDS011;23615;51.506;7.678;2023-12-29T10:52:25;0.10;;;0.00;;
37777;SDS011;23615;51.506;7.678;2023-12-29T10:54:51;1.30;;;0.10;;
37777;SDS011;23615;51.506;7.678;2023-12-29T10:57:29;0.50;;;0.00;;
37777;SDS011;23615;51.506;7.678;2023-12-29T10:59:55;0.13;;;0.00;;
37777;SDS011;23615;51.506;7.678;2023-12-29T11:02:21;0.10;;;0.00;;
37777;SDS011;23615;51.506;7.678;2023-12-29T11:04:46;0.20;;;0.00;;
37777;SDS011;23615;51.506;7.678;2023-12-29T11:07:12;0.30;;;0.00;;
37777;SDS011;23615;51.506;7.678;2023-12-29T11:09:38;0.40;;;0.10;;
37777;SDS011;23615;51.506;7.678;2023-12-29T11:12:04;0.30;;;0.20;;
37777;SDS011;23615;51.506;7.678;2023-12-29T11:14:31;0.30;;;0.10;;
37777;SDS011;23615;51.506;7.678;2023-12-29T11:16:57;0.47;;;0.05;;
37777;SDS011;23615;51.506;7.678;2023-12-29T11:19:25;0.20;;;0.10;;
37777;SDS011;23615;51.506;7.678;2023-12-29T11:21:52;1.27;;;0.17;;
37777;SDS011;23615;51.506;7.678;2023-12-29T11:24:19;0.73;;;0.20;;
37777;SDS011;23615;51.506;7.678;2023-12-29T11:26:45;1.85;;;0.10;;
37777;SDS011;23615;51.506;7.678;2023-12-29T11:29:13;0.40;;;0.10;;
37777;SDS011;23615;51.506;7.678;2023-12-29T11:31:39;0.73;;;0.10;;
37777;SDS011;23615;51.506;7.678;2023-12-29T11:36:55;0.70;;;0.10;;
37777;SDS011;23615;51.506;7.678;2023-12-29T11:39:32;0.40;;;0.10;;
37777;SDS011;23615;51.506;7.678;2023-12-29T11:42:20;0.90;;;0.17;;
37777;SDS011;23615;51.506;7.678;2023-12-29T11:44:47;0.50;;;0.20;;
37777;SDS011;23615;51.506;7.678;2023-12-29T11:50:04;1.80;;;0.20;;
37777;SDS011;23615;51.506;7.678;2023-12-29T11:52:37;0.40;;;0.10;;
37777;SDS011;23615;51.506;7.678;2023-12-29T11:55:09;0.50;;;0.10;;
37777;SDS011;23615;51.506;7.678;2023-12-29T11:57:36;0.70;;;0.20;;
37777;SDS011;23615;51.506;7.678;2023-12-29T12:00:03;0.60;;;0.30;;
37777;SDS011;23615;51.506;7.678;2023-12-29T12:02:30;0.47;;;0.20;;
37777;SDS011;23615;51.506;7.678;2023-12-29T12:04:56;0.60;;;0.20;;
37777;SDS011;23615;51.506;7.678;2023-12-29T12:09:47;0.80;;;0.20;;
37777;SDS011;23615;51.506;7.678;2023-12-29T12:12:14;1.47;;;0.47;;
37777;SDS011;23615;51.506;7.678;2023-12-29T12:15:03;0.90;;;0.30;;
37777;SDS011;23615;51.506;7.678;2023-12-29T12:17:49;2.00;;;0.10;;
37777;SDS011;23615;51.506;7.678;2023-12-29T12:20:15;2.10;;;0.20;;
37777;SDS011;23615;51.506;7.678;2023-12-29T12:22:41;1.70;;;0.20;;
37777;SDS011;23615;51.506;7.678;2023-12-29T12:25:08;2.63;;;0.40;;
37777;SDS011;23615;51.506;7.678;2023-12-29T12:27:37;3.08;;;0.40;;
37777;SDS011;23615;51.506;7.678;2023-12-29T12:30:03;1.38;;;0.17;;
37777;SDS011;23615;51.506;7.678;2023-12-29T12:32:29;0.70;;;0.10;;
37777;SDS011;23615;51.506;7.678;2023-12-29T12:34:55;2.47;;;0.20;;
37777;SDS011;23615;51.506;7.678;2023-12-29T12:37:28;0.67;;;0.10;;
37777;SDS011;23615;51.506;7.678;2023-12-29T12:39:55;3.90;;;0.20;;
37777;SDS011;23615;51.506;7.678;2023-12-29T12:42:21;1.65;;;0.20;;
37777;SDS011;23615;51.506;7.678;2023-12-29T12:44:48;1.40;;;0.15;;
37777;SDS011;23615;51.506;7.678;2023-12-29T12:47:23;1.20;;;0.10;;
37777;SDS011;23615;51.506;7.678;2023-12-29T12:49:52;1.70;;;0.10;;
37777;SDS011;23615;51.506;7.678;2023-12-29T12:52:17;0.98;;;0.20;;
37777;SDS011;23615;51.506;7.678;2023-12-29T12:54:43;0.65;;;0.10;;
37777;SDS011;23615;51.506;7.678;2023-12-29T12:57:09;0.67;;;0.10;;
37777;SDS011;23615;51.506;7.678;2023-12-29T12:59:35;1.90;;;0.10;;
37777;SDS011;23615;51.506;7.678;2023-12-29T13:02:01;1.00;;;0.30;;
37777;SDS011;23615;51.506;7.678;2023-12-29T13:04:27;0.55;;;0.20;;
37777;SDS011;23615;51.506;7.678;2023-12-29T13:06:53;2.33;;;0.30;;
37777;SDS011;23615;51.506;7.678;2023-12-29T13:09:18;3.97;;;0.30;;
37777;SDS011;23615;51.506;7.678;2023-12-29T13:11:44;0.68;;;0.20;;
37777;SDS011;23615;51.506;7.678;2023-12-29T13:14:19;1.20;;;0.20;;
37777;SDS011;23615;51.506;7.678;2023-12-29T13:16:45;1.38;;;0.20;;
37777;SDS011;23615;51.506;7.678;2023-12-29T13:19:18;1.37;;;0.30;;
37777;SDS011;23615;51.506;7.678;2023-12-29T13:21:46;1.20;;;0.20;;
37777;SDS011;23615;51.506;7.678;2023-12-29T13:24:13;1.67;;;0.25;;
37777;SDS011;23615;51.506;7.678;2023-12-29T13:26:40;1.55;;;0.32;;
37777;SDS011;23615;51.506;7.678;2023-12-29T13:29:07;1.43;;;0.10;;
37777;SDS011;23615;51.506;7.678;2023-12-29T13:31:32;2.07;;;0.20;;
37777;SDS011;23615;51.506;7.678;2023-12-29T13:33:59;0.73;;;0.10;;
37777;SDS011;23615;51.506;7.678;2023-12-29T13:36:40;0.40;;;0.10;;
37777;SDS011;23615;51.506;7.678;2023-12-29T13:39:22;1.00;;;0.15;;
37777;SDS011;23615;51.506;7.678;2023-12-29T13:41:55;1.10;;;0.20;;
37777;SDS011;23615;51.506;7.678;2023-12-29T13:44:21;0.65;;;0.20;;
37777;SDS011;23615;51.506;7.678;2023-12-29T13:46:48;1.73;;;0.20;;
37777;SDS011;23615;51.506;7.678;2023-12-29T13:49:16;2.00;;;0.20;;
37777;SDS011;23615;51.506;7.678;2023-12-29T13:51:42;1.80;;;0.30;;
37777;SDS011;23615;51.506;7.678;2023-12-29T13:54:07;2.40;;;0.20;;
37777;SDS011;23615;51.506;7.678;2023-12-29T13:56:34;1.08;;;0.20;;
37777;SDS011;23615;51.506;7.678;2023-12-29T13:58:59;3.20;;;0.20;;
37777;SDS011;23615;51.506;7.678;2023-12-29T14:01:34;0.95;;;0.20;;
37777;SDS011;23615;51.506;7.678;2023-12-29T14:04:00;1.70;;;0.30;;
37777;SDS011;23615;51.506;7.678;2023-12-29T14:06:29;1.63;;;0.30;;
37777;SDS011;23615;51.506;7.678;2023-12-29T14:09:03;0.60;;;0.30;;
37777;SDS011;23615;51.506;7.678;2023-12-29T14:11:29;2.03;;;0.20;;
37777;SDS011;23615;51.506;7.678;2023-12-29T14:13:55;1.07;;;0.30;;
37777;SDS011;23615;51.506;7.678;2023-12-29T14:16:21;2.10;;;0.40;;
37777;SDS011;23615;51.506;7.678;2023-12-29T14:18:54;1.50;;;0.30;;
37777;SDS011;23615;51.506;7.678;2023-12-29T14:21:26;0.40;;;0.20;;
37777;SDS011;23615;51.506;7.678;2023-12-29T14:24:05;0.65;;;0.20;;
37777;SDS011;23615;51.506;7.678;2023-12-29T14:26:36;2.67;;;0.47;;
37777;SDS011;23615;51.506;7.678;2023-12-29T14:29:06;2.08;;;0.52;;
37777;SDS011;23615;51.506;7.678;2023-12-29T14:31:37;1.38;;;0.30;;
37777;SDS011;23615;51.506;7.678;2023-12-29T14:34:04;1.17;;;0.20;;
37777;SDS011;23615;51.506;7.678;2023-12-29T14:36:30;1.73;;;0.30;;
37777;SDS011;23615;51.506;7.678;2023-12-29T14:39:00;1.50;;;0.30;;
37777;SDS011;23615;51.506;7.678;2023-12-29T14:41:26;1.52;;;0.35;;
37777;SDS011;23615;51.506;7.678;2023-12-29T14:43:52;2.95;;;0.52;;
37777;SDS011;23615;51.506;7.678;2023-12-29T14:46:18;1.33;;;0.32;;
37777;SDS011;23615;51.506;7.678;2023-12-29T14:48:43;1.10;;;0.30;;
37777;SDS011;23615;51.506;7.678;2023-12-29T14:51:09;1.83;;;0.40;;
37777;SDS011;23615;51.506;7.678;2023-12-29T14:53:34;4.03;;;0.40;;
37777;SDS011;23615;51.506;7.678;2023-12-29T14:55:59;1.87;;;0.50;;
37777;SDS011;23615;51.506;7.678;2023-12-29T14:58:25;2.97;;;0.50;;